Saxton, Illinois
Current Conditions -  °F | °C
As of 4:35 AM on Monday 20 Oct 2014 (Local Time) from KC75 Reporting Station
Clear Clear  
Wind Chill: 51°   Ceiling: Unl
Heat Index: 51°   Visibility: 10mi
Dew Point: 45°   Wind: 3mph
Humidity: 81%   Direction: 200°SSW
Pressure: 29.86"   Gusts: NA
Location:  41.1043°N, 89.8577°W
Report Text: KC75 200935Z AUTO 20003KT 10SM CLR 10/07 A2986 RMK AO2 T01030071
Loading
Personal Weather Stations






























Interactive Weather Map
Tropical Storm Tracking
New forecast layout! Learn more

10-Day Weather Forecast

Advertisements
Track Severe Weather on mobile